Roslindale, MA (02131)

2:00 PM EDT on September 20, 2014 (GMT -0400)
Roslindale (Rosecliff) | Change Station
CLOSE
Current Station
Personal Weather Station
Location: Roslindale, MA
Elevation: 157 ft
Nearby Weather Stations

Elev 157 ft 42.28 °N, 71.13 °W | Updated 6 minutes ago

Mostly Cloudy
Mostly Cloudy
71.1 °F
Feels Like 75 °F
N
0.7
Wind Variable Wind from South
Gusts 1.6 mph

Today
High -- | Low -- °F
--% Chance of Precip.
Yesterday
High -- | Low -- °F
Precip. -- in
6:29 AM 6:45 PM
Waning Crescent, 11% visible
Pressure 30.20 in
Visibility 10.0 miles
Clouds Mostly Cloudy 3900 ft
Heat Index 75 °F
Dew Point 59 °F
Humidity 65%
Rainfall 0.00 in
Snow Depth Not available.
UV 4 out of 12
Pollen 3.50 out of 12
PM2.5 Moderate
Flu Activity Not available.
METAR KOWD 201753Z 18012G19KT 10SM BKN039 21/11 A3020 RMK AO2 SLP227 T02110111 10217 20039 58029

More Conditions Fewer Conditions

Pressure 30.20 in
Visibility 10.0 miles
Clouds Mostly Cloudy 3900 ft
Heat Index 75 °F
Dew Point 59 °F
Humidity 65%
Rainfall 0.00 in
Snow Depth Not available.
UV 4 out of 12
Pollen 3.50 out of 12
PM2.5 Moderate
Flu Activity Not available.
METAR KOWD 201753Z 18012G19KT 10SM BKN039 21/11 A3020 RMK AO2 SLP227 T02110111 10217 20039 58029

More Conditions Fewer Conditions

10-Day Weather Forecast

Almanac

Astronomy

Sep. 20, 2014 Rise Set
Actual Time 6:29 AM EDT 6:45 PM EDT
Civil Twilight 6:01 AM EDT 7:13 PM EDT
Nautical Twilight 5:28 AM EDT 7:46 PM EDT
Astronomical Twilight 4:55 AM EDT 8:19 PM EDT
Moon 3:02 AM EDT 4:49 PM EDT
Length of Visible Light 13h 11m
Length of Day
12h 15m
Tomorrow will be 2m 49s shorter.
Waning Crescent, 11% of the Moon is Illuminated
Today
Waning Crescent
Sep 24
New
Oct 1
First Quarter
Oct 8
Full
Oct 15
Last Quarter

Today's Extremes

State Highs State Lows

Community

WunderPhotos

Upload Photos

1,754,921 photos uploaded!

WunderBlogs® & News

Nearby

Air Quality

  Air Quality AQ Index Pollutant
Yesterday Good
PM2.5
Yesterday Good
OZONE
Current Moderate
PM2.5
Saturday Good
PM2.5
Saturday Good
OZONE

Snow Depth

Station Depth Elevation
No new snow has been reported.

Earthquake Activity

City Distance Mag. Time & Date
No recent earthquake activity has been reported nearby.
Minimum magnitude displayed is 2.5.

Coastal Water Temperatures

Place Temperature
Boston, MA 63.0 °F
Providence, RI 66.0 °F
Fall River, MA 69.1 °F
Conimicut Light, RI 68.0 °F

Nearby Weather Stations